Time;durP1;ratioP1;P1;durP2;ratioP2;P2;SDS_P1;SDS_P2;PMS_P1;PMS_P2;Temp;Humidity;BMP_temperature;BMP_pressure;BME280_temperature;BME280_humidity;BME280_pressure;Samples;Min_cycle;Max_cycle;Signal;HPM_P1;HPM_P2
2022/06/21 00:01:26;;;;;;;;;;;13.80;99.90;;;;;;5009933;28;19960;-46
2022/06/21 00:03:52;;;;;;;;;;;13.80;99.90;;;;;;5008899;28;19956;-46
2022/06/21 00:06:18;;;;;;;;;;;13.90;99.90;;;;;;5007219;28;20367;-51
2022/06/21 00:08:44;;;;;;;;;;;13.80;99.90;;;;;;5009227;28;19917;-46
2022/06/21 00:11:24;;;;;;;;;;;13.80;99.90;;;;;;5011688;28;19917;-47
2022/06/21 00:13:50;;;;;;;;;;;13.80;99.90;;;;;;5007485;28;20008;-46
2022/06/21 00:16:16;;;;;;;;;;;13.70;99.90;;;;;;5007309;28;20008;-47
2022/06/21 00:18:42;;;;;;;;;;;13.70;99.90;;;;;;5013575;28;20359;-48
2022/06/21 00:21:12;;;;;;;;;;;13.70;99.90;;;;;;4991941;28;20012;-48
2022/06/21 00:23:38;;;;;;;;;;;13.60;99.90;;;;;;5006793;28;19924;-44
2022/06/21 00:26:03;;;;;;;;;;;13.60;99.90;;;;;;5010849;28;19921;-46
2022/06/21 00:28:29;;;;;;;;;;;13.60;99.90;;;;;;5005362;28;20032;-47
2022/06/21 00:30:55;;;;;;;;;;;13.50;99.90;;;;;;5009876;28;19924;-49
2022/06/21 00:33:23;;;;;;;;;;;13.60;99.90;;;;;;5005741;28;19917;-47
2022/06/21 00:35:49;;;;;;;;;;;13.50;99.90;;;;;;5010443;28;19947;-47
2022/06/21 00:38:16;;;;;;;;;;;13.50;99.90;;;;;;5008190;28;19923;-48
2022/06/21 00:40:42;;;;;;;;;;;13.50;99.90;;;;;;5007303;28;19969;-49
2022/06/21 00:43:13;;;;;;;;;;;13.50;99.90;;;;;;5008497;28;19917;-45
2022/06/21 00:45:41;;;;;;;;;;;13.50;99.90;;;;;;5007193;28;20000;-48
2022/06/21 00:48:27;;;;;;;;;;;13.40;99.90;;;;;;5011006;28;20048;-48
2022/06/21 00:51:11;;;;;;;;;;;13.40;99.90;;;;;;4993430;28;19928;-48
2022/06/21 00:53:38;;;;;;;;;;;13.40;99.90;;;;;;5010543;28;19975;-48
2022/06/21 00:56:15;;;;;;;;;;;13.40;99.90;;;;;;5012864;28;19948;-45
2022/06/21 00:58:40;;;;;;;;;;;13.30;99.90;;;;;;5011731;28;20349;-46
2022/06/21 01:01:13;;;;;;;;;;;13.30;99.90;;;;;;5010430;28;20000;-46
2022/06/21 01:03:59;;;;;;;;;;;13.30;99.90;;;;;;5007631;28;19932;-44
2022/06/21 01:06:31;;;;;;;;;;;13.30;99.90;;;;;;4999911;28;19916;-45
2022/06/21 01:08:59;;;;;;;;;;;13.20;99.90;;;;;;5015147;28;19921;-45
2022/06/21 01:11:30;;;;;;;;;;;13.20;99.90;;;;;;5013345;28;19918;-48
2022/06/21 01:13:57;;;;;;;;;;;13.10;99.90;;;;;;5012509;28;19924;-49
2022/06/21 01:16:25;;;;;;;;;;;13.10;99.90;;;;;;5008998;28;19929;-45
2022/06/21 01:18:51;;;;;;;;;;;13.10;99.90;;;;;;5017267;28;19929;-49
2022/06/21 01:21:17;;;;;;;;;;;13.10;99.90;;;;;;5015893;28;19964;-43
2022/06/21 01:24:02;;;;;;;;;;;13.00;99.90;;;;;;5009908;28;20358;-46
2022/06/21 01:26:31;;;;;;;;;;;13.10;99.90;;;;;;4991878;28;20015;-47
2022/06/21 01:28:57;;;;;;;;;;;13.00;99.90;;;;;;5012218;28;19928;-46
2022/06/21 01:31:23;;;;;;;;;;;12.90;99.90;;;;;;5014957;28;19979;-48
2022/06/21 01:33:48;;;;;;;;;;;12.90;99.90;;;;;;5013184;28;19921;-48
2022/06/21 01:36:25;;;;;;;;;;;12.90;99.90;;;;;;5016041;28;19925;-47
2022/06/21 01:38:57;;;;;;;;;;;12.80;99.90;;;;;;5010510;28;19921;-45
2022/06/21 01:41:32;;;;;;;;;;;12.80;99.90;;;;;;5010852;28;19921;-45
2022/06/21 01:43:59;;;;;;;;;;;12.80;99.90;;;;;;5014023;28;19968;-49
2022/06/21 01:46:27;;;;;;;;;;;12.70;99.90;;;;;;5015657;28;19925;-46
2022/06/21 01:48:55;;;;;;;;;;;12.60;99.90;;;;;;5014521;28;20397;-43
2022/06/21 01:51:42;;;;;;;;;;;12.50;99.90;;;;;;5011677;28;20433;-45
2022/06/21 01:54:09;;;;;;;;;;;12.50;99.90;;;;;;5012316;28;20021;-44
2022/06/21 01:56:37;;;;;;;;;;;12.40;99.90;;;;;;5009329;28;20343;-44
2022/06/21 01:59:06;;;;;;;;;;;12.40;99.90;;;;;;5001790;28;19929;-46
2022/06/21 02:01:36;;;;;;;;;;;12.40;99.90;;;;;;5004211;28;19972;-44
2022/06/21 02:04:03;;;;;;;;;;;12.40;99.90;;;;;;5013653;28;19929;-43
2022/06/21 02:06:31;;;;;;;;;;;12.40;99.90;;;;;;5008722;28;20004;-43
2022/06/21 02:09:00;;;;;;;;;;;12.40;99.90;;;;;;4993592;28;19988;-47
2022/06/21 02:11:40;;;;;;;;;;;12.40;99.90;;;;;;5008474;28;19971;-43
2022/06/21 02:14:29;;;;;;;;;;;12.40;99.90;;;;;;5016297;28;19917;-44
2022/06/21 02:17:06;;;;;;;;;;;12.30;99.90;;;;;;5007623;28;19968;-47
2022/06/21 02:19:36;;;;;;;;;;;12.30;99.90;;;;;;5014544;28;19917;-49
2022/06/21 02:22:02;;;;;;;;;;;12.30;99.90;;;;;;4996299;28;19917;-44
2022/06/21 02:24:30;;;;;;;;;;;12.20;99.90;;;;;;5015059;28;20290;-46
2022/06/21 02:26:57;;;;;;;;;;;12.00;99.90;;;;;;5010090;28;19917;-49
2022/06/21 02:29:22;;;;;;;;;;;11.80;99.90;;;;;;5009620;28;19925;-49
2022/06/21 02:31:49;;;;;;;;;;;11.70;99.90;;;;;;5006598;28;19924;-46
2022/06/21 02:34:20;;;;;;;;;;;11.60;99.90;;;;;;5010302;28;19921;-46
2022/06/21 02:36:48;;;;;;;;;;;11.60;99.90;;;;;;5011291;28;19928;-48
2022/06/21 02:39:17;;;;;;;;;;;11.50;99.90;;;;;;5002140;28;19928;-48
2022/06/21 02:41:46;;;;;;;;;;;11.50;99.90;;;;;;5010270;28;19926;-47
2022/06/21 02:44:15;;;;;;;;;;;11.50;99.90;;;;;;5014169;28;20382;-45
2022/06/21 02:46:44;;;;;;;;;;;11.50;99.90;;;;;;5005462;28;19917;-45
2022/06/21 02:49:09;;;;;;;;;;;11.60;99.90;;;;;;5012634;28;19925;-47
2022/06/21 02:51:37;;;;;;;;;;;11.60;99.90;;;;;;5009354;28;19928;-46
2022/06/21 02:54:07;;;;;;;;;;;11.50;99.90;;;;;;5009064;28;19996;-49
2022/06/21 02:56:48;;;;;;;;;;;11.50;99.90;;;;;;5008296;28;19997;-46
2022/06/21 02:59:13;;;;;;;;;;;11.50;99.90;;;;;;5011740;28;20367;-44
2022/06/21 03:01:47;;;;;;;;;;;11.50;99.90;;;;;;5008691;28;20011;-44
2022/06/21 03:04:18;;;;;;;;;;;11.50;99.90;;;;;;5012633;28;19917;-47
2022/06/21 03:06:43;;;;;;;;;;;11.40;99.90;;;;;;5008599;28;19925;-46
2022/06/21 03:09:12;;;;;;;;;;;11.40;99.90;;;;;;5012001;28;20079;-45
2022/06/21 03:11:40;;;;;;;;;;;11.40;99.90;;;;;;5013014;28;19924;-47
2022/06/21 03:14:08;;;;;;;;;;;11.40;99.90;;;;;;5008744;28;19917;-48
2022/06/21 03:16:34;;;;;;;;;;;11.50;99.90;;;;;;5009541;28;20007;-44
2022/06/21 03:19:02;;;;;;;;;;;11.50;99.90;;;;;;5006971;28;20016;-46
2022/06/21 03:21:30;;;;;;;;;;;11.50;99.90;;;;;;5010324;28;19924;-45
2022/06/21 03:23:57;;;;;;;;;;;11.50;99.90;;;;;;5009504;28;19925;-50
2022/06/21 03:26:23;;;;;;;;;;;11.50;99.90;;;;;;5009492;28;19917;-47
2022/06/21 03:28:51;;;;;;;;;;;11.50;99.90;;;;;;5008839;28;19975;-44
2022/06/21 03:31:20;;;;;;;;;;;11.50;99.90;;;;;;5005055;28;19993;-48
2022/06/21 03:33:48;;;;;;;;;;;11.40;99.90;;;;;;5011913;28;19917;-45
2022/06/21 03:36:16;;;;;;;;;;;11.20;99.90;;;;;;5010243;28;20323;-46
2022/06/21 03:38:46;;;;;;;;;;;11.10;99.90;;;;;;5009458;28;19940;-46
2022/06/21 03:44:00;;;;;;;;;;;11.10;99.90;;;;;;5007734;28;19917;-49
2022/06/21 03:46:38;;;;;;;;;;;11.10;99.90;;;;;;5008458;28;19983;-49
2022/06/21 03:49:14;;;;;;;;;;;11.10;99.90;;;;;;5010054;28;20333;-48
2022/06/21 03:51:42;;;;;;;;;;;11.10;99.90;;;;;;5016956;28;19931;-45
2022/06/21 03:54:10;;;;;;;;;;;11.10;99.90;;;;;;5008210;28;19987;-49
2022/06/21 03:56:45;;;;;;;;;;;11.10;99.90;;;;;;5005591;28;19941;-43
2022/06/21 03:59:11;;;;;;;;;;;11.00;99.90;;;;;;5005330;28;19918;-44
2022/06/21 04:01:36;;;;;;;;;;;11.00;99.90;;;;;;5004792;28;20350;-48
2022/06/21 04:04:14;;;;;;;;;;;11.00;99.90;;;;;;5009042;28;19924;-46
2022/06/21 04:06:43;;;;;;;;;;;11.00;99.90;;;;;;5001394;28;20376;-46
2022/06/21 04:09:08;;;;;;;;;;;10.90;99.90;;;;;;5010812;28;19923;-47
2022/06/21 04:11:43;;;;;;;;;;;10.80;99.90;;;;;;5008753;28;20012;-46
2022/06/21 04:14:09;;;;;;;;;;;10.70;99.90;;;;;;5006754;28;19943;-46
2022/06/21 04:16:37;;;;;;;;;;;10.70;99.90;;;;;;5012130;28;19921;-45
2022/06/21 04:19:03;;;;;;;;;;;10.70;99.90;;;;;;5009883;28;19917;-47
2022/06/21 04:21:37;;;;;;;;;;;10.70;99.90;;;;;;4996510;28;19972;-45
2022/06/21 04:24:12;;;;;;;;;;;10.80;99.90;;;;;;5010357;28;20036;-49
2022/06/21 04:26:57;;;;;;;;;;;10.80;99.90;;;;;;5010258;28;19921;-48
2022/06/21 04:29:27;;;;;;;;;;;10.90;99.90;;;;;;5007884;28;20401;-48
2022/06/21 04:32:06;;;;;;;;;;;11.10;99.90;;;;;;5008599;28;19921;-46
2022/06/21 04:34:37;;;;;;;;;;;11.20;99.90;;;;;;5013244;28;19999;-45
2022/06/21 04:37:06;;;;;;;;;;;11.30;99.90;;;;;;5012181;28;20259;-50
2022/06/21 04:39:38;;;;;;;;;;;11.40;99.90;;;;;;5011223;28;19924;-45
2022/06/21 04:42:18;;;;;;;;;;;11.40;99.90;;;;;;5014503;28;20401;-47
2022/06/21 04:44:55;;;;;;;;;;;11.40;99.90;;;;;;5019264;28;20727;-48
2022/06/21 04:47:23;;;;;;;;;;;11.30;99.90;;;;;;5012755;28;20371;-49
2022/06/21 04:49:54;;;;;;;;;;;11.40;99.90;;;;;;5010028;28;19921;-46
2022/06/21 04:52:24;;;;;;;;;;;11.50;99.90;;;;;;5008605;28;19918;-44
2022/06/21 04:54:50;;;;;;;;;;;11.50;99.90;;;;;;5012251;28;19925;-48
2022/06/21 04:57:20;;;;;;;;;;;11.50;99.90;;;;;;5009499;28;19921;-46
2022/06/21 04:59:54;;;;;;;;;;;11.50;99.90;;;;;;5015983;28;19928;-48
2022/06/21 05:02:22;;;;;;;;;;;11.50;99.90;;;;;;5010994;28;19924;-46
2022/06/21 05:04:50;;;;;;;;;;;11.50;99.90;;;;;;5019122;28;19967;-45
2022/06/21 05:07:18;;;;;;;;;;;11.50;99.90;;;;;;5012288;28;19973;-46
2022/06/21 05:09:44;;;;;;;;;;;11.50;99.90;;;;;;5010313;28;19933;-45
2022/06/21 05:12:11;;;;;;;;;;;11.60;99.90;;;;;;5011347;28;19922;-48
2022/06/21 05:14:39;;;;;;;;;;;11.60;99.90;;;;;;5010825;28;19969;-43
2022/06/21 05:17:07;;;;;;;;;;;11.70;99.90;;;;;;5011300;28;19979;-45
2022/06/21 05:19:36;;;;;;;;;;;11.80;99.90;;;;;;5012238;28;19917;-44
2022/06/21 05:22:09;;;;;;;;;;;11.90;99.90;;;;;;5011933;28;20037;-45
2022/06/21 05:24:35;;;;;;;;;;;12.10;99.90;;;;;;5016165;28;19921;-46
2022/06/21 05:27:18;;;;;;;;;;;12.20;99.90;;;;;;5015501;28;20430;-48
2022/06/21 05:29:50;;;;;;;;;;;12.30;99.90;;;;;;5003383;28;19929;-46
2022/06/21 05:32:26;;;;;;;;;;;12.40;99.90;;;;;;5007012;28;19925;-49
2022/06/21 05:34:57;;;;;;;;;;;12.50;99.90;;;;;;5013972;28;20020;-43
2022/06/21 05:37:28;;;;;;;;;;;12.60;99.90;;;;;;5011964;28;19924;-46
2022/06/21 05:39:55;;;;;;;;;;;12.80;99.90;;;;;;5010298;28;20008;-46
2022/06/21 05:42:22;;;;;;;;;;;12.90;99.90;;;;;;5010087;28;19929;-47
2022/06/21 05:44:49;;;;;;;;;;;13.00;99.90;;;;;;5009378;28;19996;-48
2022/06/21 05:47:22;;;;;;;;;;;13.10;99.90;;;;;;5009494;28;19922;-46
2022/06/21 05:49:48;;;;;;;;;;;13.30;99.90;;;;;;5012922;28;19960;-45
2022/06/21 05:52:24;;;;;;;;;;;13.40;99.90;;;;;;5011064;28;19959;-48
2022/06/21 05:54:55;;;;;;;;;;;13.50;99.90;;;;;;5015992;28;19952;-47
2022/06/21 05:57:22;;;;;;;;;;;13.60;99.90;;;;;;5010807;28;19926;-46
2022/06/21 05:59:48;;;;;;;;;;;13.70;99.90;;;;;;4989727;28;19991;-47
2022/06/21 06:02:43;;;;;;;;;;;13.80;99.90;;;;;;5010367;28;19921;-45
2022/06/21 06:05:15;;;;;;;;;;;13.90;99.90;;;;;;5004102;28;19917;-46
2022/06/21 06:07:47;;;;;;;;;;;14.00;99.90;;;;;;5013235;28;19921;-48
2022/06/21 06:10:14;;;;;;;;;;;14.10;99.90;;;;;;5009688;28;19971;-49
2022/06/21 06:12:42;;;;;;;;;;;14.20;99.90;;;;;;5008043;28;19925;-45
2022/06/21 06:15:17;;;;;;;;;;;14.30;99.90;;;;;;5016126;28;19922;-47
2022/06/21 06:17:55;;;;;;;;;;;14.40;99.90;;;;;;5006788;28;19917;-49
2022/06/21 06:20:24;;;;;;;;;;;14.40;99.90;;;;;;4994377;28;20433;-49
2022/06/21 06:22:55;;;;;;;;;;;14.50;99.90;;;;;;5013524;28;20067;-45
2022/06/21 06:25:43;;;;;;;;;;;14.50;99.90;;;;;;5009344;28;20450;-48
2022/06/21 06:28:17;;;;;;;;;;;14.60;99.90;;;;;;5012320;28;19921;-48
2022/06/21 06:30:45;;;;;;;;;;;14.70;99.90;;;;;;5012563;28;19917;-50
2022/06/21 06:33:23;;;;;;;;;;;14.80;99.90;;;;;;5016053;28;20474;-50
2022/06/21 06:35:49;;;;;;;;;;;14.80;99.90;;;;;;5011557;28;19921;-48
2022/06/21 06:38:16;;;;;;;;;;;15.00;99.90;;;;;;5009193;28;19921;-46
2022/06/21 06:40:43;;;;;;;;;;;15.10;99.90;;;;;;4987225;28;19921;-43
2022/06/21 06:43:24;;;;;;;;;;;15.10;99.90;;;;;;5009035;28;19917;-45
2022/06/21 06:45:51;;;;;;;;;;;15.30;99.90;;;;;;5007328;28;22101;-45
2022/06/21 06:48:21;;;;;;;;;;;15.40;99.90;;;;;;5012080;28;19944;-48
2022/06/21 06:50:51;;;;;;;;;;;15.50;99.90;;;;;;5011335;28;19922;-48
2022/06/21 06:53:19;;;;;;;;;;;15.60;99.90;;;;;;5004859;28;19949;-43
2022/06/21 06:55:46;;;;;;;;;;;15.60;99.90;;;;;;5000550;28;19925;-47
2022/06/21 06:58:17;;;;;;;;;;;15.60;99.90;;;;;;5014072;28;19976;-47
2022/06/21 07:00:48;;;;;;;;;;;15.50;99.90;;;;;;5038098;23;19928;-79
2022/06/21 07:03:25;;;;;;;;;;;15.60;99.90;;;;;;4971010;28;20401;-79
2022/06/21 07:06:14;;;;;;;;;;;15.60;99.90;;;;;;4974670;28;19929;-80
2022/06/21 07:08:43;;;;;;;;;;;15.80;99.90;;;;;;5063853;23;20021;-85
2022/06/21 07:11:18;;;;;;;;;;;15.90;99.10;;;;;;4936333;29;20077;-84
2022/06/21 07:13:44;;;;;;;;;;;16.00;99.00;;;;;;4924708;29;19930;-85
2022/06/21 07:16:16;;;;;;;;;;;16.30;99.70;;;;;;4909690;23;20303;-50
2022/06/21 07:18:45;;;;;;;;;;;16.40;99.40;;;;;;4951798;29;20036;-46
2022/06/21 07:21:11;;;;;;;;;;;16.60;99.40;;;;;;4955178;28;19968;-45
2022/06/21 07:23:36;;;;;;;;;;;16.70;98.30;;;;;;4938416;28;20416;-47
2022/06/21 07:26:05;;;;;;;;;;;16.80;97.40;;;;;;4952006;29;20432;-48
2022/06/21 07:28:34;;;;;;;;;;;16.80;96.00;;;;;;4962370;28;19918;-49
2022/06/21 07:31:03;;;;;;;;;;;16.90;95.50;;;;;;4957601;28;20393;-49
2022/06/21 07:33:32;;;;;;;;;;;17.00;95.70;;;;;;4954987;28;20255;-45
2022/06/21 07:36:01;;;;;;;;;;;17.00;95.50;;;;;;4955789;28;20224;-43
2022/06/21 07:38:31;;;;;;;;;;;17.10;95.30;;;;;;4955658;28;20390;-45
2022/06/21 07:40:59;;;;;;;;;;;17.10;94.90;;;;;;4959721;28;19918;-49
2022/06/21 07:43:35;;;;;;;;;;;17.20;94.90;;;;;;4957625;28;19918;-50
2022/06/21 07:46:02;;;;;;;;;;;17.10;94.10;;;;;;4947185;28;20242;-49
2022/06/21 07:48:32;;;;;;;;;;;17.10;94.20;;;;;;4954350;28;19928;-48
2022/06/21 07:51:24;;;;;;;;;;;17.20;93.50;;;;;;4954563;28;20389;-50
2022/06/21 07:53:52;;;;;;;;;;;17.10;93.30;;;;;;4934765;28;19922;-49
2022/06/21 07:56:20;;;;;;;;;;;17.20;94.10;;;;;;4955303;28;20008;-46
2022/06/21 07:58:53;;;;;;;;;;;17.30;92.90;;;;;;4955280;28;19957;-48
2022/06/21 08:07:11;;;;;;;;;;;17.60;92.00;;;;;;4922936;28;20528;-49
2022/06/21 08:09:43;;;;;;;;;;;17.70;92.80;;;;;;4955047;28;19945;-47
2022/06/21 08:12:10;;;;;;;;;;;17.70;92.00;;;;;;4954838;28;19918;-47
2022/06/21 08:14:36;;;;;;;;;;;17.70;91.20;;;;;;4952908;28;19922;-50
2022/06/21 08:17:08;;;;;;;;;;;17.90;91.00;;;;;;4956040;28;20351;-50
2022/06/21 08:19:39;;;;;;;;;;;18.20;90.20;;;;;;4961496;28;19997;-48
2022/06/21 08:22:05;;;;;;;;;;;18.50;89.60;;;;;;4957447;28;19964;-49
2022/06/21 08:24:43;;;;;;;;;;;18.70;90.00;;;;;;4962997;28;19929;-45
2022/06/21 08:27:14;;;;;;;;;;;18.90;88.90;;;;;;4958860;28;20009;-48
2022/06/21 08:29:44;;;;;;;;;;;19.00;87.20;;;;;;4954131;28;19918;-47
2022/06/21 08:32:13;;;;;;;;;;;19.10;86.50;;;;;;4947817;28;19984;-49
2022/06/21 08:34:44;;;;;;;;;;;19.20;85.30;;;;;;4952594;28;19919;-50
2022/06/21 08:37:26;;;;;;;;;;;19.30;84.00;;;;;;4959736;28;20401;-51
2022/06/21 08:39:54;;;;;;;;;;;19.30;84.20;;;;;;4954520;28;19966;-50
2022/06/21 08:42:30;;;;;;;;;;;19.30;84.00;;;;;;4953792;28;19918;-50
2022/06/21 08:47:45;;;;;;;;;;;19.40;84.00;;;;;;4951707;28;19926;-48
2022/06/21 08:50:30;;;;;;;;;;;19.50;82.70;;;;;;4961744;28;20315;-46
2022/06/21 08:53:13;;;;;;;;;;;19.50;81.30;;;;;;4952149;28;20388;-49
2022/06/21 08:55:47;;;;;;;;;;;19.40;80.80;;;;;;4961827;28;19929;-51
2022/06/21 08:58:32;;;;;;;;;;;19.40;81.70;;;;;;4951507;29;20295;-49
2022/06/21 09:01:03;;;;;;;;;;;19.60;81.90;;;;;;4959129;28;19922;-45
2022/06/21 09:03:31;;;;;;;;;;;19.70;79.70;;;;;;4960852;28;19918;-48
2022/06/21 09:06:15;;;;;;;;;;;20.00;79.10;;;;;;4962026;28;20342;-51
2022/06/21 09:08:51;;;;;;;;;;;20.10;77.80;;;;;;4952943;28;19945;-51
2022/06/21 09:11:36;;;;;;;;;;;20.10;77.10;;;;;;4952022;28;20401;-49
2022/06/21 09:14:12;;;;;;;;;;;20.30;76.70;;;;;;4931912;28;19922;-50
2022/06/21 09:16:41;;;;;;;;;;;20.40;75.40;;;;;;4954650;28;19930;-49
2022/06/21 09:19:06;;;;;;;;;;;20.50;74.00;;;;;;4953234;28;19944;-50
2022/06/21 09:21:51;;;;;;;;;;;20.50;72.80;;;;;;4956835;28;19918;-49
2022/06/21 09:24:25;;;;;;;;;;;20.50;69.10;;;;;;4961355;28;19922;-47
2022/06/21 09:26:55;;;;;;;;;;;20.50;72.60;;;;;;4954388;28;19922;-47
2022/06/21 09:29:24;;;;;;;;;;;20.50;71.30;;;;;;4955780;28;19918;-49
2022/06/21 09:32:03;;;;;;;;;;;20.60;71.00;;;;;;4962954;28;19966;-48
2022/06/21 09:34:32;;;;;;;;;;;20.40;67.20;;;;;;4958115;28;19944;-46
2022/06/21 09:37:03;;;;;;;;;;;20.10;71.50;;;;;;4956960;28;19922;-50
2022/06/21 09:39:37;;;;;;;;;;;20.00;69.10;;;;;;4958104;28;20022;-48
2022/06/21 09:42:17;;;;;;;;;;;19.90;71.10;;;;;;4939086;28;19921;-50
2022/06/21 09:44:51;;;;;;;;;;;20.00;70.20;;;;;;4968749;28;19922;-49
2022/06/21 09:47:29;;;;;;;;;;;20.20;65.40;;;;;;4951739;28;19922;-47
2022/06/21 09:49:58;;;;;;;;;;;20.30;68.10;;;;;;4952825;29;19918;-48
2022/06/21 09:52:47;;;;;;;;;;;20.40;64.80;;;;;;4954760;28;19919;-50
2022/06/21 09:55:16;;;;;;;;;;;20.40;58.50;;;;;;4953841;28;20047;-45
2022/06/21 09:57:52;;;;;;;;;;;20.40;61.90;;;;;;4957340;28;19922;-48
2022/06/21 10:00:18;;;;;;;;;;;20.60;68.90;;;;;;4955066;28;19923;-51
2022/06/21 10:02:57;;;;;;;;;;;20.80;65.00;;;;;;4964720;28;19975;-46
2022/06/21 10:05:31;;;;;;;;;;;20.90;65.20;;;;;;4954633;28;20009;-47
2022/06/21 10:08:17;;;;;;;;;;;21.10;62.90;;;;;;4953445;28;20354;-47
2022/06/21 10:11:01;;;;;;;;;;;21.10;61.70;;;;;;4954553;29;20324;-52
2022/06/21 10:13:34;;;;;;;;;;;21.00;57.30;;;;;;4957116;28;20354;-49
2022/06/21 10:16:11;;;;;;;;;;;21.10;55.40;;;;;;4953934;28;19973;-48
2022/06/21 10:18:51;;;;;;;;;;;21.20;56.20;;;;;;4954036;29;19981;-50
2022/06/21 10:21:19;;;;;;;;;;;21.20;58.40;;;;;;4954395;29;19922;-51
2022/06/21 10:23:44;;;;;;;;;;;21.30;59.10;;;;;;4964167;28;19977;-51
2022/06/21 10:26:22;;;;;;;;;;;21.50;57.20;;;;;;4953812;28;19919;-49
2022/06/21 10:29:00;;;;;;;;;;;21.60;57.40;;;;;;4979327;28;19918;-48
2022/06/21 10:31:29;;;;;;;;;;;21.60;50.50;;;;;;4956496;28;20033;-48
2022/06/21 10:34:09;;;;;;;;;;;21.70;50.10;;;;;;4953691;28;19918;-45
2022/06/21 10:36:54;;;;;;;;;;;21.80;53.50;;;;;;4961327;28;19918;-45
2022/06/21 10:39:20;;;;;;;;;;;21.90;51.20;;;;;;4960522;28;20291;-51
2022/06/21 10:44:53;;;;;;;;;;;22.20;52.40;;;;;;4959042;28;20009;-47
2022/06/21 10:47:28;;;;;;;;;;;22.20;51.30;;;;;;4962697;28;20307;-48
2022/06/21 10:50:06;;;;;;;;;;;22.00;50.80;;;;;;4953179;28;19922;-45
2022/06/21 10:52:56;;;;;;;;;;;22.00;49.30;;;;;;4958151;28;20492;-50
2022/06/21 10:55:21;;;;;;;;;;;21.90;45.60;;;;;;4960931;28;19954;-47
2022/06/21 10:58:05;;;;;;;;;;;22.10;47.00;;;;;;4953660;29;19984;-48
2022/06/21 11:03:33;;;;;;;;;;;22.40;47.40;;;;;;4952516;28;20423;-50
2022/06/21 11:05:58;;;;;;;;;;;22.30;48.40;;;;;;4953433;29;19926;-49
2022/06/21 11:08:43;;;;;;;;;;;22.30;46.60;;;;;;4953704;28;19919;-48
2022/06/21 11:11:21;;;;;;;;;;;22.40;46.80;;;;;;4969242;28;19929;-47
2022/06/21 11:14:05;;;;;;;;;;;22.50;47.30;;;;;;4950764;28;19922;-49
2022/06/21 11:16:31;;;;;;;;;;;22.50;48.00;;;;;;4957030;28;19930;-45
2022/06/21 11:19:15;;;;;;;;;;;22.70;50.40;;;;;;4959568;28;20385;-47
2022/06/21 11:21:47;;;;;;;;;;;22.80;49.10;;;;;;4957691;28;19978;-46
2022/06/21 11:24:21;;;;;;;;;;;23.00;47.60;;;;;;4960677;28;19969;-49
2022/06/21 11:26:53;;;;;;;;;;;23.10;45.80;;;;;;4952309;28;19962;-50
2022/06/21 11:29:30;;;;;;;;;;;23.30;48.00;;;;;;4959656;28;19926;-48
2022/06/21 11:32:05;;;;;;;;;;;23.30;47.60;;;;;;4960624;28;20005;-48
2022/06/21 11:34:49;;;;;;;;;;;23.40;47.70;;;;;;4956086;28;19918;-48
2022/06/21 11:37:20;;;;;;;;;;;23.30;44.90;;;;;;4953742;28;20406;-49
2022/06/21 11:39:45;;;;;;;;;;;23.30;48.20;;;;;;4952706;28;20014;-49
2022/06/21 11:42:23;;;;;;;;;;;23.30;49.90;;;;;;4955439;28;20024;-47
2022/06/21 11:44:55;;;;;;;;;;;23.50;48.80;;;;;;4955231;28;19937;-49
2022/06/21 11:47:39;;;;;;;;;;;23.50;46.70;;;;;;4953014;28;19960;-49
2022/06/21 11:50:19;;;;;;;;;;;23.50;47.00;;;;;;4954379;28;19922;-46
2022/06/21 11:52:50;;;;;;;;;;;23.40;46.50;;;;;;4953493;28;20362;-48
2022/06/21 11:55:22;;;;;;;;;;;23.50;47.80;;;;;;4957454;28;20287;-48
2022/06/21 11:57:53;;;;;;;;;;;23.50;47.20;;;;;;4955300;28;20390;-49
2022/06/21 12:00:22;;;;;;;;;;;23.50;46.10;;;;;;4934928;29;19918;-50
2022/06/21 12:02:55;;;;;;;;;;;23.50;47.20;;;;;;4954320;28;20386;-51
2022/06/21 12:05:21;;;;;;;;;;;23.60;46.40;;;;;;4952401;28;19929;-50
2022/06/21 12:07:54;;;;;;;;;;;23.60;45.30;;;;;;4952225;29;19919;-50
2022/06/21 12:10:21;;;;;;;;;;;23.70;46.60;;;;;;4952584;29;19923;-47
2022/06/21 12:12:54;;;;;;;;;;;23.70;45.50;;;;;;4954913;28;20020;-48
2022/06/21 12:15:20;;;;;;;;;;;23.90;45.40;;;;;;4954905;28;19981;-49
2022/06/21 12:17:54;;;;;;;;;;;24.00;45.30;;;;;;4952247;28;20347;-50
2022/06/21 12:20:31;;;;;;;;;;;24.20;46.60;;;;;;4952731;29;20413;-46
2022/06/21 12:23:06;;;;;;;;;;;24.30;45.10;;;;;;4952233;28;20374;-51
2022/06/21 12:25:31;;;;;;;;;;;24.40;44.50;;;;;;4955852;28;20321;-47
2022/06/21 12:27:59;;;;;;;;;;;24.30;44.00;;;;;;4958985;28;20056;-45
2022/06/21 12:30:26;;;;;;;;;;;24.20;44.80;;;;;;4955102;28;20310;-47
2022/06/21 12:32:57;;;;;;;;;;;24.00;43.70;;;;;;4955080;28;19925;-52
2022/06/21 12:35:35;;;;;;;;;;;24.10;45.10;;;;;;4950748;28;20314;-47
2022/06/21 12:38:01;;;;;;;;;;;24.20;43.20;;;;;;4956029;28;20331;-45
2022/06/21 12:40:33;;;;;;;;;;;24.40;43.00;;;;;;4951667;28;19945;-48
2022/06/21 12:43:24;;;;;;;;;;;24.50;42.20;;;;;;4954830;28;19945;-49
2022/06/21 12:45:56;;;;;;;;;;;24.60;41.90;;;;;;4949183;28;19929;-50
2022/06/21 12:48:21;;;;;;;;;;;24.80;43.50;;;;;;4955986;28;19926;-50
2022/06/21 12:51:10;;;;;;;;;;;24.50;41.90;;;;;;4957656;28;20371;-50
2022/06/21 12:53:47;;;;;;;;;;;24.50;42.20;;;;;;4956417;28;20024;-50
2022/06/21 12:56:26;;;;;;;;;;;24.50;44.50;;;;;;4957403;28;20299;-42
2022/06/21 12:58:51;;;;;;;;;;;24.40;44.20;;;;;;4962704;28;19965;-44
2022/06/21 13:01:24;;;;;;;;;;;24.30;44.20;;;;;;4947829;29;20323;-50
2022/06/21 13:03:58;;;;;;;;;;;24.30;42.70;;;;;;4965256;28;19922;-49
2022/06/21 13:06:48;;;;;;;;;;;24.50;43.00;;;;;;4955570;28;20248;-48
2022/06/21 13:09:32;;;;;;;;;;;24.60;43.90;;;;;;4955524;29;20402;-55
2022/06/21 13:12:17;;;;;;;;;;;24.70;44.30;;;;;;4954915;29;19918;-52
2022/06/21 13:14:55;;;;;;;;;;;24.70;43.60;;;;;;4968954;28;20294;-52
2022/06/21 13:17:24;;;;;;;;;;;24.80;43.40;;;;;;4958146;28;20387;-55
2022/06/21 13:20:02;;;;;;;;;;;25.10;42.90;;;;;;4962705;28;20461;-51
2022/06/21 13:22:46;;;;;;;;;;;25.20;42.00;;;;;;4961620;28;19918;-51
2022/06/21 13:25:24;;;;;;;;;;;25.30;40.80;;;;;;4962915;28;19918;-47
2022/06/21 13:27:50;;;;;;;;;;;25.50;40.20;;;;;;4965444;28;20012;-45
2022/06/21 13:30:30;;;;;;;;;;;25.40;40.70;;;;;;4959739;28;20009;-48
2022/06/21 13:33:16;;;;;;;;;;;25.30;42.00;;;;;;4937200;28;19917;-42
2022/06/21 13:35:43;;;;;;;;;;;25.10;41.40;;;;;;4940487;28;20402;-43
2022/06/21 13:38:18;;;;;;;;;;;25.10;41.60;;;;;;4960074;28;19993;-42
2022/06/21 13:40:55;;;;;;;;;;;25.30;40.80;;;;;;4962718;28;19926;-41
2022/06/21 13:43:30;;;;;;;;;;;25.60;40.90;;;;;;4937403;28;19929;-42
2022/06/21 13:46:04;;;;;;;;;;;25.90;41.50;;;;;;4961161;28;19943;-42
2022/06/21 13:48:30;;;;;;;;;;;25.90;39.60;;;;;;4962738;28;20025;-41
2022/06/21 13:50:55;;;;;;;;;;;26.00;40.20;;;;;;4959318;28;19919;-43
2022/06/21 13:53:38;;;;;;;;;;;26.00;41.10;;;;;;4962631;28;19925;-42
2022/06/21 13:56:06;;;;;;;;;;;26.10;40.80;;;;;;4955970;28;20043;-45
2022/06/21 13:58:37;;;;;;;;;;;26.10;39.10;;;;;;4964393;28;19918;-48
2022/06/21 14:01:10;;;;;;;;;;;26.10;38.10;;;;;;4958790;28;19918;-44
2022/06/21 14:03:45;;;;;;;;;;;26.10;38.70;;;;;;4935743;28;20196;-46
2022/06/21 14:06:13;;;;;;;;;;;25.90;36.80;;;;;;4959187;28;20378;-46
2022/06/21 14:08:45;;;;;;;;;;;25.90;36.90;;;;;;4954542;29;19934;-46
2022/06/21 14:11:26;;;;;;;;;;;26.00;38.40;;;;;;4938726;28;20066;-47
2022/06/21 14:13:54;;;;;;;;;;;26.40;38.70;;;;;;4955445;28;20004;-49
2022/06/21 14:16:39;;;;;;;;;;;26.50;36.30;;;;;;4954338;29;20396;-49
2022/06/21 14:19:19;;;;;;;;;;;26.50;36.60;;;;;;4954612;28;19926;-48
2022/06/21 14:21:51;;;;;;;;;;;26.30;35.70;;;;;;4954531;29;20025;-50
2022/06/21 14:24:17;;;;;;;;;;;26.60;37.30;;;;;;4954618;29;19941;-48
2022/06/21 14:26:55;;;;;;;;;;;26.90;36.10;;;;;;4954326;29;20013;-47
2022/06/21 14:29:23;;;;;;;;;;;27.30;36.00;;;;;;4954050;29;19922;-48
2022/06/21 14:32:02;;;;;;;;;;;27.70;36.50;;;;;;4954203;29;19934;-48
2022/06/21 14:34:37;;;;;;;;;;;27.70;33.80;;;;;;4961890;28;19918;-53
2022/06/21 14:37:15;;;;;;;;;;;27.60;34.00;;;;;;4955575;28;20010;-47
2022/06/21 14:39:43;;;;;;;;;;;27.20;34.60;;;;;;4954230;29;19974;-50
2022/06/21 14:42:18;;;;;;;;;;;27.00;36.70;;;;;;4953991;28;19926;-46
2022/06/21 14:44:49;;;;;;;;;;;26.80;35.10;;;;;;4954868;28;19926;-46
2022/06/21 14:47:27;;;;;;;;;;;26.80;35.80;;;;;;4937167;29;19918;-45
2022/06/21 14:49:59;;;;;;;;;;;26.80;36.30;;;;;;4954351;28;19925;-45
2022/06/21 14:52:30;;;;;;;;;;;26.60;35.50;;;;;;4958727;28;19921;-45
2022/06/21 14:54:58;;;;;;;;;;;26.50;35.70;;;;;;4963896;28;20375;-43
2022/06/21 14:57:43;;;;;;;;;;;26.50;36.70;;;;;;4936488;29;19926;-45
2022/06/21 15:00:08;;;;;;;;;;;27.00;36.80;;;;;;4953960;29;20437;-45
2022/06/21 15:02:46;;;;;;;;;;;27.60;35.60;;;;;;4953928;29;19922;-44